sensor_id;sensor_type;location;lat;lon;timestamp;P1;durP1;ratioP1;P2;durP2;ratioP2
33672;SDS011;20011;51.510;9.942;2024-01-30T00:00:58;10.38;;;6.25;;
33672;SDS011;20011;51.510;9.942;2024-01-30T00:03:25;9.85;;;6.55;;
33672;SDS011;20011;51.510;9.942;2024-01-30T00:05:52;14.38;;;7.35;;
33672;SDS011;20011;51.510;9.942;2024-01-30T00:08:23;12.73;;;6.60;;
33672;SDS011;20011;51.510;9.942;2024-01-30T00:10:50;9.40;;;6.18;;
33672;SDS011;20011;51.510;9.942;2024-01-30T00:13:17;10.55;;;6.88;;
33672;SDS011;20011;51.510;9.942;2024-01-30T00:15:46;10.90;;;6.10;;
33672;SDS011;20011;51.510;9.942;2024-01-30T00:18:13;10.35;;;6.20;;
33672;SDS011;20011;51.510;9.942;2024-01-30T00:20:40;10.07;;;6.00;;
33672;SDS011;20011;51.510;9.942;2024-01-30T00:23:07;10.35;;;6.72;;
33672;SDS011;20011;51.510;9.942;2024-01-30T00:25:34;9.15;;;6.25;;
33672;SDS011;20011;51.510;9.942;2024-01-30T00:28:01;8.63;;;5.68;;
33672;SDS011;20011;51.510;9.942;2024-01-30T00:30:28;10.25;;;5.82;;
33672;SDS011;20011;51.510;9.942;2024-01-30T00:32:55;12.52;;;6.65;;
33672;SDS011;20011;51.510;9.942;2024-01-30T00:35:22;10.18;;;5.50;;
33672;SDS011;20011;51.510;9.942;2024-01-30T00:37:49;12.07;;;7.35;;
33672;SDS011;20011;51.510;9.942;2024-01-30T00:40:15;12.45;;;7.10;;
33672;SDS011;20011;51.510;9.942;2024-01-30T00:42:44;10.75;;;6.32;;
33672;SDS011;20011;51.510;9.942;2024-01-30T00:45:12;12.38;;;6.55;;
33672;SDS011;20011;51.510;9.942;2024-01-30T00:47:40;9.80;;;6.03;;
33672;SDS011;20011;51.510;9.942;2024-01-30T00:50:07;11.80;;;6.70;;
33672;SDS011;20011;51.510;9.942;2024-01-30T00:52:35;9.13;;;6.18;;
33672;SDS011;20011;51.510;9.942;2024-01-30T00:55:02;11.40;;;6.88;;
33672;SDS011;20011;51.510;9.942;2024-01-30T00:57:29;12.10;;;6.40;;
33672;SDS011;20011;51.510;9.942;2024-01-30T00:59:56;11.65;;;6.55;;
33672;SDS011;20011;51.510;9.942;2024-01-30T01:02:23;11.70;;;6.50;;
33672;SDS011;20011;51.510;9.942;2024-01-30T01:04:50;13.27;;;6.63;;
33672;SDS011;20011;51.510;9.942;2024-01-30T01:07:17;12.10;;;6.65;;
33672;SDS011;20011;51.510;9.942;2024-01-30T01:09:44;12.32;;;6.72;;
33672;SDS011;20011;51.510;9.942;2024-01-30T01:12:11;12.18;;;7.00;;
33672;SDS011;20011;51.510;9.942;2024-01-30T01:14:38;14.63;;;7.20;;
33672;SDS011;20011;51.510;9.942;2024-01-30T01:17:04;11.70;;;7.13;;
33672;SDS011;20011;51.510;9.942;2024-01-30T01:19:31;10.90;;;6.90;;
33672;SDS011;20011;51.510;9.942;2024-01-30T01:21:58;12.77;;;7.18;;
33672;SDS011;20011;51.510;9.942;2024-01-30T01:24:25;12.35;;;6.60;;
33672;SDS011;20011;51.510;9.942;2024-01-30T01:26:52;13.05;;;7.32;;
33672;SDS011;20011;51.510;9.942;2024-01-30T01:29:19;10.18;;;5.93;;
33672;SDS011;20011;51.510;9.942;2024-01-30T01:31:47;9.52;;;6.25;;
33672;SDS011;20011;51.510;9.942;2024-01-30T01:34:14;9.70;;;5.88;;
33672;SDS011;20011;51.510;9.942;2024-01-30T01:36:41;12.25;;;6.85;;
33672;SDS011;20011;51.510;9.942;2024-01-30T01:39:08;11.43;;;6.53;;
33672;SDS011;20011;51.510;9.942;2024-01-30T01:41:35;11.80;;;6.77;;
33672;SDS011;20011;51.510;9.942;2024-01-30T01:44:02;9.77;;;6.73;;
33672;SDS011;20011;51.510;9.942;2024-01-30T01:46:30;9.90;;;6.43;;
33672;SDS011;20011;51.510;9.942;2024-01-30T01:48:59;9.30;;;6.22;;
33672;SDS011;20011;51.510;9.942;2024-01-30T01:51:29;12.57;;;6.80;;
33672;SDS011;20011;51.510;9.942;2024-01-30T01:53:57;13.57;;;6.45;;
33672;SDS011;20011;51.510;9.942;2024-01-30T01:56:27;15.30;;;7.50;;
33672;SDS011;20011;51.510;9.942;2024-01-30T01:58:55;10.60;;;6.53;;
33672;SDS011;20011;51.510;9.942;2024-01-30T02:01:25;10.53;;;6.80;;
33672;SDS011;20011;51.510;9.942;2024-01-30T02:03:53;9.23;;;6.13;;
33672;SDS011;20011;51.510;9.942;2024-01-30T02:06:20;11.50;;;6.37;;
33672;SDS011;20011;51.510;9.942;2024-01-30T02:08:47;12.00;;;6.95;;
33672;SDS011;20011;51.510;9.942;2024-01-30T02:11:14;11.90;;;6.88;;
33672;SDS011;20011;51.510;9.942;2024-01-30T02:13:42;9.45;;;6.10;;
33672;SDS011;20011;51.510;9.942;2024-01-30T02:16:09;9.93;;;6.07;;
33672;SDS011;20011;51.510;9.942;2024-01-30T02:18:36;11.38;;;6.63;;
33672;SDS011;20011;51.510;9.942;2024-01-30T02:21:08;10.38;;;6.72;;
33672;SDS011;20011;51.510;9.942;2024-01-30T02:23:35;11.13;;;6.55;;
33672;SDS011;20011;51.510;9.942;2024-01-30T02:26:04;9.32;;;5.90;;
33672;SDS011;20011;51.510;9.942;2024-01-30T02:28:31;10.43;;;6.45;;
33672;SDS011;20011;51.510;9.942;2024-01-30T02:30:58;9.55;;;6.13;;
33672;SDS011;20011;51.510;9.942;2024-01-30T02:33:25;12.10;;;6.30;;
33672;SDS011;20011;51.510;9.942;2024-01-30T02:35:52;10.55;;;6.43;;
33672;SDS011;20011;51.510;9.942;2024-01-30T02:42:30;10.07;;;6.00;;
33672;SDS011;20011;51.510;9.942;2024-01-30T02:44:57;10.03;;;5.90;;
33672;SDS011;20011;51.510;9.942;2024-01-30T02:47:24;10.33;;;6.70;;
33672;SDS011;20011;51.510;9.942;2024-01-30T02:49:52;10.23;;;6.45;;
33672;SDS011;20011;51.510;9.942;2024-01-30T02:52:22;10.18;;;5.93;;
33672;SDS011;20011;51.510;9.942;2024-01-30T02:54:55;10.05;;;6.55;;
33672;SDS011;20011;51.510;9.942;2024-01-30T02:57:22;9.82;;;5.85;;
33672;SDS011;20011;51.510;9.942;2024-01-30T03:03:12;8.90;;;6.03;;
33672;SDS011;20011;51.510;9.942;2024-01-30T03:05:39;8.95;;;5.60;;
33672;SDS011;20011;51.510;9.942;2024-01-30T03:08:06;11.13;;;6.38;;
33672;SDS011;20011;51.510;9.942;2024-01-30T03:10:33;11.77;;;6.88;;
33672;SDS011;20011;51.510;9.942;2024-01-30T03:13:00;9.98;;;6.10;;
33672;SDS011;20011;51.510;9.942;2024-01-30T03:15:27;8.35;;;5.60;;
33672;SDS011;20011;51.510;9.942;2024-01-30T03:17:54;10.45;;;5.90;;
33672;SDS011;20011;51.510;9.942;2024-01-30T03:20:21;8.63;;;5.78;;
33672;SDS011;20011;51.510;9.942;2024-01-30T03:22:48;9.60;;;5.13;;
33672;SDS011;20011;51.510;9.942;2024-01-30T03:25:15;8.40;;;5.22;;
33672;SDS011;20011;51.510;9.942;2024-01-30T03:27:42;9.10;;;5.30;;
33672;SDS011;20011;51.510;9.942;2024-01-30T03:30:08;9.88;;;5.47;;
33672;SDS011;20011;51.510;9.942;2024-01-30T03:32:35;9.13;;;5.68;;
33672;SDS011;20011;51.510;9.942;2024-01-30T03:35:02;8.07;;;5.47;;
33672;SDS011;20011;51.510;9.942;2024-01-30T03:37:30;8.73;;;5.10;;
33672;SDS011;20011;51.510;9.942;2024-01-30T03:39:57;10.45;;;5.80;;
33672;SDS011;20011;51.510;9.942;2024-01-30T03:42:24;9.75;;;5.35;;
33672;SDS011;20011;51.510;9.942;2024-01-30T03:44:51;8.68;;;4.97;;
33672;SDS011;20011;51.510;9.942;2024-01-30T03:47:19;9.43;;;5.22;;
33672;SDS011;20011;51.510;9.942;2024-01-30T04:01:23;9.13;;;5.90;;
33672;SDS011;20011;51.510;9.942;2024-01-30T04:04:02;9.18;;;5.80;;
33672;SDS011;20011;51.510;9.942;2024-01-30T04:06:30;11.40;;;5.67;;
33672;SDS011;20011;51.510;9.942;2024-01-30T04:08:56;9.03;;;5.57;;
33672;SDS011;20011;51.510;9.942;2024-01-30T04:11:23;8.35;;;5.55;;
33672;SDS011;20011;51.510;9.942;2024-01-30T04:13:50;8.30;;;5.40;;
33672;SDS011;20011;51.510;9.942;2024-01-30T04:16:20;7.90;;;4.90;;
33672;SDS011;20011;51.510;9.942;2024-01-30T04:18:49;9.88;;;5.30;;
33672;SDS011;20011;51.510;9.942;2024-01-30T04:21:17;8.90;;;5.40;;
33672;SDS011;20011;51.510;9.942;2024-01-30T04:23:44;10.20;;;5.97;;
33672;SDS011;20011;51.510;9.942;2024-01-30T04:26:11;8.23;;;5.35;;
33672;SDS011;20011;51.510;9.942;2024-01-30T04:28:38;9.93;;;5.25;;
33672;SDS011;20011;51.510;9.942;2024-01-30T04:31:05;8.32;;;5.38;;
33672;SDS011;20011;51.510;9.942;2024-01-30T04:40:49;8.55;;;4.93;;
33672;SDS011;20011;51.510;9.942;2024-01-30T04:43:57;8.57;;;5.90;;
33672;SDS011;20011;51.510;9.942;2024-01-30T04:46:24;11.23;;;5.35;;
33672;SDS011;20011;51.510;9.942;2024-01-30T04:48:51;7.55;;;5.30;;
33672;SDS011;20011;51.510;9.942;2024-01-30T04:51:18;9.90;;;5.15;;
33672;SDS011;20011;51.510;9.942;2024-01-30T04:53:45;8.35;;;5.25;;
33672;SDS011;20011;51.510;9.942;2024-01-30T04:56:12;10.85;;;5.55;;
33672;SDS011;20011;51.510;9.942;2024-01-30T04:58:39;8.52;;;5.43;;
33672;SDS011;20011;51.510;9.942;2024-01-30T05:01:05;9.13;;;5.47;;
33672;SDS011;20011;51.510;9.942;2024-01-30T05:03:33;9.20;;;5.47;;
33672;SDS011;20011;51.510;9.942;2024-01-30T05:06:01;11.85;;;5.30;;
33672;SDS011;20011;51.510;9.942;2024-01-30T05:08:28;7.28;;;5.25;;
33672;SDS011;20011;51.510;9.942;2024-01-30T05:10:55;10.43;;;5.70;;
33672;SDS011;20011;51.510;9.942;2024-01-30T05:13:22;8.20;;;5.43;;
33672;SDS011;20011;51.510;9.942;2024-01-30T05:15:49;9.20;;;5.35;;
33672;SDS011;20011;51.510;9.942;2024-01-30T05:18:16;9.90;;;5.60;;
33672;SDS011;20011;51.510;9.942;2024-01-30T05:20:43;9.20;;;5.93;;
33672;SDS011;20011;51.510;9.942;2024-01-30T05:23:10;10.60;;;6.40;;
33672;SDS011;20011;51.510;9.942;2024-01-30T05:25:36;11.32;;;5.93;;
33672;SDS011;20011;51.510;9.942;2024-01-30T05:28:03;9.90;;;5.63;;
33672;SDS011;20011;51.510;9.942;2024-01-30T05:30:31;8.15;;;5.40;;
33672;SDS011;20011;51.510;9.942;2024-01-30T05:32:58;11.90;;;6.18;;
33672;SDS011;20011;51.510;9.942;2024-01-30T05:39:38;9.38;;;5.43;;
33672;SDS011;20011;51.510;9.942;2024-01-30T05:42:04;11.25;;;5.75;;
33672;SDS011;20011;51.510;9.942;2024-01-30T05:44:32;9.27;;;6.30;;
33672;SDS011;20011;51.510;9.942;2024-01-30T05:46:59;10.77;;;5.95;;
33672;SDS011;20011;51.510;9.942;2024-01-30T05:49:26;9.75;;;5.78;;
33672;SDS011;20011;51.510;9.942;2024-01-30T05:51:53;11.48;;;5.95;;
33672;SDS011;20011;51.510;9.942;2024-01-30T05:54:21;10.75;;;5.50;;
33672;SDS011;20011;51.510;9.942;2024-01-30T05:56:48;9.43;;;5.85;;
33672;SDS011;20011;51.510;9.942;2024-01-30T05:59:15;9.50;;;5.80;;
33672;SDS011;20011;51.510;9.942;2024-01-30T06:01:46;8.75;;;5.82;;
33672;SDS011;20011;51.510;9.942;2024-01-30T06:04:14;7.93;;;5.63;;
33672;SDS011;20011;51.510;9.942;2024-01-30T06:06:42;9.07;;;5.28;;
33672;SDS011;20011;51.510;9.942;2024-01-30T06:09:09;11.40;;;5.50;;
33672;SDS011;20011;51.510;9.942;2024-01-30T06:11:36;9.43;;;5.53;;
33672;SDS011;20011;51.510;9.942;2024-01-30T06:14:03;8.57;;;5.13;;
33672;SDS011;20011;51.510;9.942;2024-01-30T06:20:37;10.63;;;5.90;;
33672;SDS011;20011;51.510;9.942;2024-01-30T06:23:04;13.13;;;6.07;;
33672;SDS011;20011;51.510;9.942;2024-01-30T06:25:32;10.63;;;5.60;;
33672;SDS011;20011;51.510;9.942;2024-01-30T06:27:59;8.95;;;5.70;;
33672;SDS011;20011;51.510;9.942;2024-01-30T06:30:26;9.45;;;5.50;;
33672;SDS011;20011;51.510;9.942;2024-01-30T06:32:53;9.50;;;6.10;;
33672;SDS011;20011;51.510;9.942;2024-01-30T06:35:20;9.15;;;5.88;;
33672;SDS011;20011;51.510;9.942;2024-01-30T06:37:47;10.75;;;5.95;;
33672;SDS011;20011;51.510;9.942;2024-01-30T06:40:14;10.15;;;6.05;;
33672;SDS011;20011;51.510;9.942;2024-01-30T06:42:41;8.45;;;5.70;;
33672;SDS011;20011;51.510;9.942;2024-01-30T06:45:09;10.32;;;5.72;;
33672;SDS011;20011;51.510;9.942;2024-01-30T06:47:36;8.15;;;5.68;;
33672;SDS011;20011;51.510;9.942;2024-01-30T06:50:03;8.70;;;5.63;;
33672;SDS011;20011;51.510;9.942;2024-01-30T06:52:30;10.35;;;6.28;;
33672;SDS011;20011;51.510;9.942;2024-01-30T06:54:57;8.25;;;5.68;;
33672;SDS011;20011;51.510;9.942;2024-01-30T06:57:24;11.45;;;6.47;;
33672;SDS011;20011;51.510;9.942;2024-01-30T06:59:52;9.65;;;5.97;;
33672;SDS011;20011;51.510;9.942;2024-01-30T07:02:22;9.32;;;5.60;;
33672;SDS011;20011;51.510;9.942;2024-01-30T07:04:49;8.15;;;5.82;;
33672;SDS011;20011;51.510;9.942;2024-01-30T07:07:16;10.07;;;6.17;;
33672;SDS011;20011;51.510;9.942;2024-01-30T07:09:43;10.65;;;6.05;;
33672;SDS011;20011;51.510;9.942;2024-01-30T07:12:10;11.93;;;7.00;;
33672;SDS011;20011;51.510;9.942;2024-01-30T07:14:37;8.85;;;6.20;;
33672;SDS011;20011;51.510;9.942;2024-01-30T07:17:04;13.10;;;6.63;;
33672;SDS011;20011;51.510;9.942;2024-01-30T07:19:32;11.02;;;6.15;;
33672;SDS011;20011;51.510;9.942;2024-01-30T07:21:59;13.45;;;6.70;;
33672;SDS011;20011;51.510;9.942;2024-01-30T07:24:27;10.88;;;6.30;;
33672;SDS011;20011;51.510;9.942;2024-01-30T07:26:54;10.27;;;6.55;;
33672;SDS011;20011;51.510;9.942;2024-01-30T07:29:20;10.68;;;6.47;;
33672;SDS011;20011;51.510;9.942;2024-01-30T07:31:48;10.80;;;6.32;;
33672;SDS011;20011;51.510;9.942;2024-01-30T07:34:15;12.88;;;6.82;;
33672;SDS011;20011;51.510;9.942;2024-01-30T07:36:43;10.90;;;6.72;;
33672;SDS011;20011;51.510;9.942;2024-01-30T07:39:10;14.27;;;7.10;;
33672;SDS011;20011;51.510;9.942;2024-01-30T07:41:36;10.02;;;6.25;;
33672;SDS011;20011;51.510;9.942;2024-01-30T07:44:03;12.60;;;6.38;;
33672;SDS011;20011;51.510;9.942;2024-01-30T07:46:30;11.05;;;6.90;;
33672;SDS011;20011;51.510;9.942;2024-01-30T07:48:58;10.98;;;6.60;;
33672;SDS011;20011;51.510;9.942;2024-01-30T07:51:26;11.25;;;7.00;;
33672;SDS011;20011;51.510;9.942;2024-01-30T07:53:54;11.18;;;6.60;;
33672;SDS011;20011;51.510;9.942;2024-01-30T08:03:48;11.97;;;7.67;;
33672;SDS011;20011;51.510;9.942;2024-01-30T08:06:15;11.73;;;7.07;;
33672;SDS011;20011;51.510;9.942;2024-01-30T08:08:42;12.50;;;7.38;;
33672;SDS011;20011;51.510;9.942;2024-01-30T08:11:09;12.40;;;6.88;;
33672;SDS011;20011;51.510;9.942;2024-01-30T08:13:36;12.63;;;6.82;;
33672;SDS011;20011;51.510;9.942;2024-01-30T08:16:03;9.85;;;6.28;;
33672;SDS011;20011;51.510;9.942;2024-01-30T08:18:31;10.93;;;6.53;;
33672;SDS011;20011;51.510;9.942;2024-01-30T08:20:58;9.45;;;6.18;;
33672;SDS011;20011;51.510;9.942;2024-01-30T08:23:25;9.77;;;6.03;;
33672;SDS011;20011;51.510;9.942;2024-01-30T08:25:52;12.50;;;6.47;;
33672;SDS011;20011;51.510;9.942;2024-01-30T08:28:19;11.38;;;6.10;;
33672;SDS011;20011;51.510;9.942;2024-01-30T08:30:47;12.63;;;6.95;;
33672;SDS011;20011;51.510;9.942;2024-01-30T08:33:14;9.77;;;6.15;;
33672;SDS011;20011;51.510;9.942;2024-01-30T08:35:41;10.57;;;6.15;;
33672;SDS011;20011;51.510;9.942;2024-01-30T08:38:08;8.85;;;5.97;;
33672;SDS011;20011;51.510;9.942;2024-01-30T08:40:35;10.48;;;6.28;;
33672;SDS011;20011;51.510;9.942;2024-01-30T08:43:02;10.18;;;6.18;;
33672;SDS011;20011;51.510;9.942;2024-01-30T08:45:30;8.65;;;6.05;;
33672;SDS011;20011;51.510;9.942;2024-01-30T08:47:57;8.98;;;6.55;;
33672;SDS011;20011;51.510;9.942;2024-01-30T08:50:24;11.05;;;6.28;;
33672;SDS011;20011;51.510;9.942;2024-01-30T08:52:51;9.93;;;6.03;;
33672;SDS011;20011;51.510;9.942;2024-01-30T08:55:18;11.75;;;6.38;;
33672;SDS011;20011;51.510;9.942;2024-01-30T08:57:45;11.15;;;6.63;;
33672;SDS011;20011;51.510;9.942;2024-01-30T09:00:12;9.13;;;6.47;;
33672;SDS011;20011;51.510;9.942;2024-01-30T09:02:39;10.05;;;6.20;;
33672;SDS011;20011;51.510;9.942;2024-01-30T09:05:07;11.90;;;6.27;;
33672;SDS011;20011;51.510;9.942;2024-01-30T09:07:34;11.40;;;6.65;;
33672;SDS011;20011;51.510;9.942;2024-01-30T09:10:01;10.05;;;6.25;;
33672;SDS011;20011;51.510;9.942;2024-01-30T09:12:28;12.15;;;6.28;;
33672;SDS011;20011;51.510;9.942;2024-01-30T09:14:55;13.63;;;7.00;;
33672;SDS011;20011;51.510;9.942;2024-01-30T09:17:22;10.00;;;6.25;;
33672;SDS011;20011;51.510;9.942;2024-01-30T09:19:49;14.45;;;7.75;;
33672;SDS011;20011;51.510;9.942;2024-01-30T09:22:16;11.88;;;6.93;;
33672;SDS011;20011;51.510;9.942;2024-01-30T09:24:43;13.85;;;6.97;;
33672;SDS011;20011;51.510;9.942;2024-01-30T09:27:10;12.40;;;6.78;;
33672;SDS011;20011;51.510;9.942;2024-01-30T09:29:37;12.15;;;6.68;;
33672;SDS011;20011;51.510;9.942;2024-01-30T09:32:04;10.35;;;6.68;;
33672;SDS011;20011;51.510;9.942;2024-01-30T09:34:32;12.90;;;6.22;;
33672;SDS011;20011;51.510;9.942;2024-01-30T09:36:59;10.60;;;7.13;;
33672;SDS011;20011;51.510;9.942;2024-01-30T09:39:27;12.73;;;6.78;;
33672;SDS011;20011;51.510;9.942;2024-01-30T09:44:24;11.27;;;7.13;;
33672;SDS011;20011;51.510;9.942;2024-01-30T09:46:52;10.00;;;6.60;;
33672;SDS011;20011;51.510;9.942;2024-01-30T09:49:19;10.57;;;6.73;;
33672;SDS011;20011;51.510;9.942;2024-01-30T09:51:47;13.15;;;6.78;;
33672;SDS011;20011;51.510;9.942;2024-01-30T09:54:16;11.40;;;6.88;;
33672;SDS011;20011;51.510;9.942;2024-01-30T09:56:43;13.80;;;6.97;;
33672;SDS011;20011;51.510;9.942;2024-01-30T09:59:10;11.03;;;6.60;;
33672;SDS011;20011;51.510;9.942;2024-01-30T10:01:37;10.20;;;6.73;;
33672;SDS011;20011;51.510;9.942;2024-01-30T10:04:07;12.18;;;6.95;;
33672;SDS011;20011;51.510;9.942;2024-01-30T10:06:34;14.55;;;7.15;;
33672;SDS011;20011;51.510;9.942;2024-01-30T10:09:01;13.52;;;7.15;;
33672;SDS011;20011;51.510;9.942;2024-01-30T10:11:28;12.13;;;6.57;;
33672;SDS011;20011;51.510;9.942;2024-01-30T10:13:55;9.80;;;6.10;;
33672;SDS011;20011;51.510;9.942;2024-01-30T10:16:22;12.23;;;6.10;;
33672;SDS011;20011;51.510;9.942;2024-01-30T10:18:50;13.55;;;6.88;;
33672;SDS011;20011;51.510;9.942;2024-01-30T10:21:17;10.23;;;6.63;;
33672;SDS011;20011;51.510;9.942;2024-01-30T10:23:45;10.67;;;6.60;;
33672;SDS011;20011;51.510;9.942;2024-01-30T10:26:11;11.83;;;6.23;;
33672;SDS011;20011;51.510;9.942;2024-01-30T10:28:39;10.68;;;6.18;;
33672;SDS011;20011;51.510;9.942;2024-01-30T10:31:06;11.80;;;6.32;;
33672;SDS011;20011;51.510;9.942;2024-01-30T10:33:33;11.48;;;6.80;;
33672;SDS011;20011;51.510;9.942;2024-01-30T10:36:01;10.50;;;6.30;;
33672;SDS011;20011;51.510;9.942;2024-01-30T10:38:29;8.68;;;6.30;;
33672;SDS011;20011;51.510;9.942;2024-01-30T10:40:58;11.10;;;6.57;;
33672;SDS011;20011;51.510;9.942;2024-01-30T10:43:35;13.43;;;7.07;;
33672;SDS011;20011;51.510;9.942;2024-01-30T10:46:10;9.38;;;6.32;;
33672;SDS011;20011;51.510;9.942;2024-01-30T10:48:42;10.82;;;6.53;;
33672;SDS011;20011;51.510;9.942;2024-01-30T10:51:11;11.20;;;6.25;;
33672;SDS011;20011;51.510;9.942;2024-01-30T10:53:39;9.18;;;6.18;;
33672;SDS011;20011;51.510;9.942;2024-01-30T10:56:10;12.55;;;6.45;;
33672;SDS011;20011;51.510;9.942;2024-01-30T10:58:38;10.20;;;6.45;;
33672;SDS011;20011;51.510;9.942;2024-01-30T11:01:05;13.60;;;6.55;;
33672;SDS011;20011;51.510;9.942;2024-01-30T11:03:33;10.23;;;6.13;;
33672;SDS011;20011;51.510;9.942;2024-01-30T11:06:02;10.17;;;6.07;;
33672;SDS011;20011;51.510;9.942;2024-01-30T11:08:31;9.25;;;5.60;;
33672;SDS011;20011;51.510;9.942;2024-01-30T11:10:59;9.80;;;5.95;;
33672;SDS011;20011;51.510;9.942;2024-01-30T11:13:26;11.85;;;7.00;;
33672;SDS011;20011;51.510;9.942;2024-01-30T11:16:04;9.85;;;6.65;;
33672;SDS011;20011;51.510;9.942;2024-01-30T11:18:32;12.73;;;6.10;;
33672;SDS011;20011;51.510;9.942;2024-01-30T11:21:01;10.23;;;5.50;;
33672;SDS011;20011;51.510;9.942;2024-01-30T11:23:33;9.43;;;5.60;;
33672;SDS011;20011;51.510;9.942;2024-01-30T11:26:01;7.83;;;5.70;;
33672;SDS011;20011;51.510;9.942;2024-01-30T11:28:32;8.07;;;5.43;;
33672;SDS011;20011;51.510;9.942;2024-01-30T11:31:04;10.33;;;5.80;;
33672;SDS011;20011;51.510;9.942;2024-01-30T11:33:33;9.07;;;5.22;;
33672;SDS011;20011;51.510;9.942;2024-01-30T11:36:01;9.95;;;6.22;;
33672;SDS011;20011;51.510;9.942;2024-01-30T11:38:29;11.00;;;6.13;;
33672;SDS011;20011;51.510;9.942;2024-01-30T11:40:56;10.80;;;5.40;;
33672;SDS011;20011;51.510;9.942;2024-01-30T11:43:23;9.98;;;5.75;;
33672;SDS011;20011;51.510;9.942;2024-01-30T11:45:53;9.63;;;5.80;;
33672;SDS011;20011;51.510;9.942;2024-01-30T11:48:20;10.75;;;6.00;;
33672;SDS011;20011;51.510;9.942;2024-01-30T11:50:47;9.40;;;5.68;;
33672;SDS011;20011;51.510;9.942;2024-01-30T11:53:15;9.10;;;5.93;;
33672;SDS011;20011;51.510;9.942;2024-01-30T11:55:48;8.57;;;4.95;;
33672;SDS011;20011;51.510;9.942;2024-01-30T11:58:16;10.18;;;5.68;;
33672;SDS011;20011;51.510;9.942;2024-01-30T12:00:52;9.10;;;5.70;;
33672;SDS011;20011;51.510;9.942;2024-01-30T12:03:20;10.60;;;5.70;;
33672;SDS011;20011;51.510;9.942;2024-01-30T12:05:54;8.83;;;5.57;;
33672;SDS011;20011;51.510;9.942;2024-01-30T12:08:22;11.52;;;5.45;;
33672;SDS011;20011;51.510;9.942;2024-01-30T12:10:55;9.13;;;5.80;;
33672;SDS011;20011;51.510;9.942;2024-01-30T12:13:25;10.93;;;5.78;;
33672;SDS011;20011;51.510;9.942;2024-01-30T12:15:58;11.05;;;5.68;;
33672;SDS011;20011;51.510;9.942;2024-01-30T12:18:25;7.85;;;5.47;;
33672;SDS011;20011;51.510;9.942;2024-01-30T12:21:00;11.35;;;5.40;;
33672;SDS011;20011;51.510;9.942;2024-01-30T12:23:28;10.73;;;5.97;;
33672;SDS011;20011;51.510;9.942;2024-01-30T12:25:56;9.17;;;5.37;;
33672;SDS011;20011;51.510;9.942;2024-01-30T12:28:23;9.80;;;5.28;;
33672;SDS011;20011;51.510;9.942;2024-01-30T12:30:50;9.00;;;5.70;;
33672;SDS011;20011;51.510;9.942;2024-01-30T12:33:28;9.30;;;6.00;;
33672;SDS011;20011;51.510;9.942;2024-01-30T12:35:56;9.02;;;5.88;;
33672;SDS011;20011;51.510;9.942;2024-01-30T12:38:29;8.85;;;5.60;;
33672;SDS011;20011;51.510;9.942;2024-01-30T12:40:56;10.27;;;5.53;;
33672;SDS011;20011;51.510;9.942;2024-01-30T12:43:24;10.07;;;5.72;;
33672;SDS011;20011;51.510;9.942;2024-01-30T12:46:03;10.93;;;5.90;;
33672;SDS011;20011;51.510;9.942;2024-01-30T12:48:31;9.38;;;5.88;;
33672;SDS011;20011;51.510;9.942;2024-01-30T12:50:58;7.38;;;5.30;;
33672;SDS011;20011;51.510;9.942;2024-01-30T12:53:25;9.95;;;5.55;;
33672;SDS011;20011;51.510;9.942;2024-01-30T12:55:52;10.40;;;5.85;;
33672;SDS011;20011;51.510;9.942;2024-01-30T12:58:20;9.88;;;5.50;;
33672;SDS011;20011;51.510;9.942;2024-01-30T13:00:48;7.70;;;5.22;;
33672;SDS011;20011;51.510;9.942;2024-01-30T13:03:15;7.82;;;5.13;;
33672;SDS011;20011;51.510;9.942;2024-01-30T13:05:42;10.65;;;5.70;;
33672;SDS011;20011;51.510;9.942;2024-01-30T13:08:09;8.93;;;5.45;;
33672;SDS011;20011;51.510;9.942;2024-01-30T13:10:36;7.60;;;4.90;;
33672;SDS011;20011;51.510;9.942;2024-01-30T13:13:03;7.85;;;5.20;;
33672;SDS011;20011;51.510;9.942;2024-01-30T13:15:34;9.00;;;5.22;;
33672;SDS011;20011;51.510;9.942;2024-01-30T13:18:01;11.25;;;5.20;;
33672;SDS011;20011;51.510;9.942;2024-01-30T13:20:29;12.00;;;5.53;;
33672;SDS011;20011;51.510;9.942;2024-01-30T13:22:56;9.32;;;5.32;;
33672;SDS011;20011;51.510;9.942;2024-01-30T13:25:24;9.60;;;5.40;;
33672;SDS011;20011;51.510;9.942;2024-01-30T13:27:52;10.80;;;5.47;;
33672;SDS011;20011;51.510;9.942;2024-01-30T13:30:20;11.45;;;5.97;;
33672;SDS011;20011;51.510;9.942;2024-01-30T13:32:47;10.10;;;5.90;;
33672;SDS011;20011;51.510;9.942;2024-01-30T13:35:14;9.45;;;5.72;;
33672;SDS011;20011;51.510;9.942;2024-01-30T13:37:41;9.95;;;5.68;;
33672;SDS011;20011;51.510;9.942;2024-01-30T13:40:08;9.10;;;5.55;;
33672;SDS011;20011;51.510;9.942;2024-01-30T13:42:39;8.60;;;5.07;;
33672;SDS011;20011;51.510;9.942;2024-01-30T13:45:06;10.43;;;4.72;;
33672;SDS011;20011;51.510;9.942;2024-01-30T13:47:36;9.68;;;4.80;;
33672;SDS011;20011;51.510;9.942;2024-01-30T13:50:04;8.38;;;4.70;;
33672;SDS011;20011;51.510;9.942;2024-01-30T13:52:33;9.68;;;5.07;;
33672;SDS011;20011;51.510;9.942;2024-01-30T13:55:10;6.53;;;4.90;;
33672;SDS011;20011;51.510;9.942;2024-01-30T13:57:37;9.13;;;5.43;;
33672;SDS011;20011;51.510;9.942;2024-01-30T14:00:05;9.85;;;5.65;;
33672;SDS011;20011;51.510;9.942;2024-01-30T14:02:38;8.73;;;5.40;;
33672;SDS011;20011;51.510;9.942;2024-01-30T14:05:05;7.60;;;5.13;;
33672;SDS011;20011;51.510;9.942;2024-01-30T14:07:33;8.80;;;5.20;;
33672;SDS011;20011;51.510;9.942;2024-01-30T14:10:00;8.80;;;5.57;;
33672;SDS011;20011;51.510;9.942;2024-01-30T14:12:29;8.90;;;5.28;;
33672;SDS011;20011;51.510;9.942;2024-01-30T14:14:56;8.27;;;5.05;;
33672;SDS011;20011;51.510;9.942;2024-01-30T14:17:23;11.35;;;5.20;;
33672;SDS011;20011;51.510;9.942;2024-01-30T14:19:50;11.52;;;5.22;;
33672;SDS011;20011;51.510;9.942;2024-01-30T14:22:17;8.43;;;5.03;;
33672;SDS011;20011;51.510;9.942;2024-01-30T14:24:44;6.40;;;4.80;;
33672;SDS011;20011;51.510;9.942;2024-01-30T14:27:12;7.70;;;5.13;;
33672;SDS011;20011;51.510;9.942;2024-01-30T14:29:39;7.18;;;4.45;;
33672;SDS011;20011;51.510;9.942;2024-01-30T14:32:07;7.83;;;4.87;;
33672;SDS011;20011;51.510;9.942;2024-01-30T14:34:34;9.63;;;5.55;;
33672;SDS011;20011;51.510;9.942;2024-01-30T14:37:02;9.00;;;4.85;;
33672;SDS011;20011;51.510;9.942;2024-01-30T14:39:29;9.50;;;5.10;;
33672;SDS011;20011;51.510;9.942;2024-01-30T14:41:56;10.15;;;5.40;;
33672;SDS011;20011;51.510;9.942;2024-01-30T14:44:23;10.02;;;5.10;;
33672;SDS011;20011;51.510;9.942;2024-01-30T14:46:50;7.93;;;4.72;;
33672;SDS011;20011;51.510;9.942;2024-01-30T14:49:17;9.50;;;5.32;;
33672;SDS011;20011;51.510;9.942;2024-01-30T14:51:45;9.75;;;5.57;;
33672;SDS011;20011;51.510;9.942;2024-01-30T14:54:12;9.98;;;4.82;;
33672;SDS011;20011;51.510;9.942;2024-01-30T14:56:39;8.60;;;5.03;;
33672;SDS011;20011;51.510;9.942;2024-01-30T14:59:06;8.23;;;5.13;;
33672;SDS011;20011;51.510;9.942;2024-01-30T15:01:33;8.27;;;5.18;;
33672;SDS011;20011;51.510;9.942;2024-01-30T15:04:00;7.97;;;5.00;;
33672;SDS011;20011;51.510;9.942;2024-01-30T15:06:27;9.43;;;5.15;;
33672;SDS011;20011;51.510;9.942;2024-01-30T15:08:55;7.88;;;4.78;;
33672;SDS011;20011;51.510;9.942;2024-01-30T15:11:22;6.93;;;4.78;;
33672;SDS011;20011;51.510;9.942;2024-01-30T15:13:49;8.57;;;5.23;;
33672;SDS011;20011;51.510;9.942;2024-01-30T15:16:16;8.27;;;5.03;;
33672;SDS011;20011;51.510;9.942;2024-01-30T15:18:43;8.98;;;4.90;;
33672;SDS011;20011;51.510;9.942;2024-01-30T15:21:10;9.32;;;4.63;;
33672;SDS011;20011;51.510;9.942;2024-01-30T15:23:37;9.82;;;5.20;;
33672;SDS011;20011;51.510;9.942;2024-01-30T15:26:04;9.75;;;5.38;;
33672;SDS011;20011;51.510;9.942;2024-01-30T15:28:35;9.23;;;5.30;;